sensor_id;sensor_type;location;lat;lon;timestamp;temperature;humidity
35613;DHT22;22054;51.646;7.078;2023-04-16T00:02:18;8.80;99.90
35613;DHT22;22054;51.646;7.078;2023-04-16T00:04:44;8.50;99.90
35613;DHT22;22054;51.646;7.078;2023-04-16T00:07:10;8.40;99.90
35613;DHT22;22054;51.646;7.078;2023-04-16T00:09:36;8.40;99.90
35613;DHT22;22054;51.646;7.078;2023-04-16T00:12:02;8.70;99.90
35613;DHT22;22054;51.646;7.078;2023-04-16T00:14:28;8.50;99.90
35613;DHT22;22054;51.646;7.078;2023-04-16T00:16:54;8.50;99.90
35613;DHT22;22054;51.646;7.078;2023-04-16T00:19:20;8.70;99.90
35613;DHT22;22054;51.646;7.078;2023-04-16T00:21:45;8.80;99.90
35613;DHT22;22054;51.646;7.078;2023-04-16T00:24:11;8.60;99.90
35613;DHT22;22054;51.646;7.078;2023-04-16T00:26:37;8.60;99.90
35613;DHT22;22054;51.646;7.078;2023-04-16T00:29:03;8.50;99.90
35613;DHT22;22054;51.646;7.078;2023-04-16T00:31:30;8.60;99.90
35613;DHT22;22054;51.646;7.078;2023-04-16T00:33:57;8.90;99.90
35613;DHT22;22054;51.646;7.078;2023-04-16T00:36:24;8.60;99.90
35613;DHT22;22054;51.646;7.078;2023-04-16T00:38:50;8.70;99.90
35613;DHT22;22054;51.646;7.078;2023-04-16T00:41:16;8.60;99.90
35613;DHT22;22054;51.646;7.078;2023-04-16T00:43:42;8.60;99.90
35613;DHT22;22054;51.646;7.078;2023-04-16T00:46:08;8.50;99.90
35613;DHT22;22054;51.646;7.078;2023-04-16T00:48:35;8.50;99.90
35613;DHT22;22054;51.646;7.078;2023-04-16T00:51:06;8.50;99.90
35613;DHT22;22054;51.646;7.078;2023-04-16T00:53:33;8.60;99.90
35613;DHT22;22054;51.646;7.078;2023-04-16T00:56:02;8.60;99.90
35613;DHT22;22054;51.646;7.078;2023-04-16T00:58:29;8.60;99.90
35613;DHT22;22054;51.646;7.078;2023-04-16T01:00:55;8.60;99.90
35613;DHT22;22054;51.646;7.078;2023-04-16T01:03:21;8.50;99.90
35613;DHT22;22054;51.646;7.078;2023-04-16T01:05:48;8.50;99.90
35613;DHT22;22054;51.646;7.078;2023-04-16T01:08:18;8.60;99.90
35613;DHT22;22054;51.646;7.078;2023-04-16T01:10:46;8.70;99.90
35613;DHT22;22054;51.646;7.078;2023-04-16T01:13:11;8.70;99.90
35613;DHT22;22054;51.646;7.078;2023-04-16T01:15:37;8.80;99.90
35613;DHT22;22054;51.646;7.078;2023-04-16T01:18:16;8.70;99.90
35613;DHT22;22054;51.646;7.078;2023-04-16T01:20:43;8.80;99.90
35613;DHT22;22054;51.646;7.078;2023-04-16T01:23:09;8.80;99.90
35613;DHT22;22054;51.646;7.078;2023-04-16T01:25:36;8.80;99.90
35613;DHT22;22054;51.646;7.078;2023-04-16T01:28:02;8.70;99.90
35613;DHT22;22054;51.646;7.078;2023-04-16T01:30:27;8.70;99.90
35613;DHT22;22054;51.646;7.078;2023-04-16T01:32:53;8.80;99.90
35613;DHT22;22054;51.646;7.078;2023-04-16T01:35:19;8.70;99.90
35613;DHT22;22054;51.646;7.078;2023-04-16T01:37:45;8.70;99.90
35613;DHT22;22054;51.646;7.078;2023-04-16T01:40:11;8.70;99.90
35613;DHT22;22054;51.646;7.078;2023-04-16T01:42:37;8.80;99.90
35613;DHT22;22054;51.646;7.078;2023-04-16T01:45:03;8.80;99.90
35613;DHT22;22054;51.646;7.078;2023-04-16T01:47:30;8.80;99.90
35613;DHT22;22054;51.646;7.078;2023-04-16T01:49:55;8.90;99.90
35613;DHT22;22054;51.646;7.078;2023-04-16T01:52:21;8.90;99.90
35613;DHT22;22054;51.646;7.078;2023-04-16T01:54:47;8.90;99.90
35613;DHT22;22054;51.646;7.078;2023-04-16T01:57:13;9.00;99.90
35613;DHT22;22054;51.646;7.078;2023-04-16T01:59:38;9.00;99.90
35613;DHT22;22054;51.646;7.078;2023-04-16T02:02:09;9.10;99.90
35613;DHT22;22054;51.646;7.078;2023-04-16T02:04:40;9.00;99.90
35613;DHT22;22054;51.646;7.078;2023-04-16T02:07:08;9.10;99.90
35613;DHT22;22054;51.646;7.078;2023-04-16T02:09:36;9.10;99.90
35613;DHT22;22054;51.646;7.078;2023-04-16T02:12:02;9.10;99.90
35613;DHT22;22054;51.646;7.078;2023-04-16T02:14:29;9.10;99.90
35613;DHT22;22054;51.646;7.078;2023-04-16T02:16:55;9.20;99.90
35613;DHT22;22054;51.646;7.078;2023-04-16T02:19:20;9.10;99.90
35613;DHT22;22054;51.646;7.078;2023-04-16T02:21:47;9.20;99.90
35613;DHT22;22054;51.646;7.078;2023-04-16T02:24:13;9.20;99.90
35613;DHT22;22054;51.646;7.078;2023-04-16T02:26:39;9.20;99.90
35613;DHT22;22054;51.646;7.078;2023-04-16T02:29:05;9.20;99.90
35613;DHT22;22054;51.646;7.078;2023-04-16T02:31:31;9.20;99.90
35613;DHT22;22054;51.646;7.078;2023-04-16T02:33:57;9.20;99.90
35613;DHT22;22054;51.646;7.078;2023-04-16T02:36:22;9.20;99.90
35613;DHT22;22054;51.646;7.078;2023-04-16T02:38:48;9.20;99.90
35613;DHT22;22054;51.646;7.078;2023-04-16T02:41:14;9.20;99.90
35613;DHT22;22054;51.646;7.078;2023-04-16T02:43:40;9.20;99.90
35613;DHT22;22054;51.646;7.078;2023-04-16T02:46:05;9.20;99.90
35613;DHT22;22054;51.646;7.078;2023-04-16T02:48:31;9.10;99.90
35613;DHT22;22054;51.646;7.078;2023-04-16T02:50:57;9.10;99.90
35613;DHT22;22054;51.646;7.078;2023-04-16T02:53:23;9.20;99.90
35613;DHT22;22054;51.646;7.078;2023-04-16T02:55:53;9.20;99.90
35613;DHT22;22054;51.646;7.078;2023-04-16T02:58:22;9.20;99.90
35613;DHT22;22054;51.646;7.078;2023-04-16T03:00:49;9.10;99.90
35613;DHT22;22054;51.646;7.078;2023-04-16T03:03:15;9.10;99.90
35613;DHT22;22054;51.646;7.078;2023-04-16T03:05:41;9.10;99.90
35613;DHT22;22054;51.646;7.078;2023-04-16T03:08:07;9.00;99.90
35613;DHT22;22054;51.646;7.078;2023-04-16T03:10:33;9.00;99.90
35613;DHT22;22054;51.646;7.078;2023-04-16T03:12:59;9.00;99.90
35613;DHT22;22054;51.646;7.078;2023-04-16T03:15:25;9.10;99.90
35613;DHT22;22054;51.646;7.078;2023-04-16T03:17:52;9.00;99.90
35613;DHT22;22054;51.646;7.078;2023-04-16T03:20:18;8.70;99.90
35613;DHT22;22054;51.646;7.078;2023-04-16T03:22:44;9.00;99.90
35613;DHT22;22054;51.646;7.078;2023-04-16T03:25:11;9.00;99.90
35613;DHT22;22054;51.646;7.078;2023-04-16T03:27:36;9.00;99.90
35613;DHT22;22054;51.646;7.078;2023-04-16T03:30:05;8.90;99.90
35613;DHT22;22054;51.646;7.078;2023-04-16T03:32:32;9.00;99.90
35613;DHT22;22054;51.646;7.078;2023-04-16T03:34:57;9.10;99.90
35613;DHT22;22054;51.646;7.078;2023-04-16T03:37:23;9.10;99.90
35613;DHT22;22054;51.646;7.078;2023-04-16T03:39:49;9.10;99.90
35613;DHT22;22054;51.646;7.078;2023-04-16T03:42:15;9.10;99.90
35613;DHT22;22054;51.646;7.078;2023-04-16T03:44:40;9.10;99.90
35613;DHT22;22054;51.646;7.078;2023-04-16T03:47:06;9.10;99.90
35613;DHT22;22054;51.646;7.078;2023-04-16T03:49:32;9.10;99.90
35613;DHT22;22054;51.646;7.078;2023-04-16T03:51:58;9.10;99.90
35613;DHT22;22054;51.646;7.078;2023-04-16T03:54:23;9.10;99.90
35613;DHT22;22054;51.646;7.078;2023-04-16T03:56:49;9.20;99.90
35613;DHT22;22054;51.646;7.078;2023-04-16T03:59:16;9.20;99.90
35613;DHT22;22054;51.646;7.078;2023-04-16T04:01:42;9.20;99.90
35613;DHT22;22054;51.646;7.078;2023-04-16T04:04:08;9.20;99.90
35613;DHT22;22054;51.646;7.078;2023-04-16T04:06:34;9.20;99.90
35613;DHT22;22054;51.646;7.078;2023-04-16T04:09:00;9.20;99.90
35613;DHT22;22054;51.646;7.078;2023-04-16T04:11:26;9.20;99.90
35613;DHT22;22054;51.646;7.078;2023-04-16T04:13:52;9.20;99.90
35613;DHT22;22054;51.646;7.078;2023-04-16T04:16:18;9.30;99.90
35613;DHT22;22054;51.646;7.078;2023-04-16T04:18:43;9.30;99.90
35613;DHT22;22054;51.646;7.078;2023-04-16T04:21:09;9.20;99.90
35613;DHT22;22054;51.646;7.078;2023-04-16T04:23:36;9.20;99.90
35613;DHT22;22054;51.646;7.078;2023-04-16T04:26:02;9.20;99.90
35613;DHT22;22054;51.646;7.078;2023-04-16T04:28:30;9.10;99.90
35613;DHT22;22054;51.646;7.078;2023-04-16T04:30:57;9.10;99.90
35613;DHT22;22054;51.646;7.078;2023-04-16T04:33:24;9.10;99.90
35613;DHT22;22054;51.646;7.078;2023-04-16T04:35:50;9.00;99.90
35613;DHT22;22054;51.646;7.078;2023-04-16T04:38:17;9.10;99.90
35613;DHT22;22054;51.646;7.078;2023-04-16T04:40:47;9.20;99.90
35613;DHT22;22054;51.646;7.078;2023-04-16T04:43:13;9.20;99.90
35613;DHT22;22054;51.646;7.078;2023-04-16T04:45:39;9.20;99.90
35613;DHT22;22054;51.646;7.078;2023-04-16T04:48:05;9.20;99.90
35613;DHT22;22054;51.646;7.078;2023-04-16T04:50:31;9.40;99.90
35613;DHT22;22054;51.646;7.078;2023-04-16T04:52:57;9.20;99.90
35613;DHT22;22054;51.646;7.078;2023-04-16T04:55:23;9.30;99.90
35613;DHT22;22054;51.646;7.078;2023-04-16T04:57:49;9.30;99.90
35613;DHT22;22054;51.646;7.078;2023-04-16T05:00:15;9.20;99.90
35613;DHT22;22054;51.646;7.078;2023-04-16T05:02:41;9.30;99.90
35613;DHT22;22054;51.646;7.078;2023-04-16T05:05:07;9.20;99.90
35613;DHT22;22054;51.646;7.078;2023-04-16T05:07:33;9.30;99.90
35613;DHT22;22054;51.646;7.078;2023-04-16T05:09:59;9.30;99.90
35613;DHT22;22054;51.646;7.078;2023-04-16T05:12:25;9.30;99.90
35613;DHT22;22054;51.646;7.078;2023-04-16T05:14:51;9.20;99.90
35613;DHT22;22054;51.646;7.078;2023-04-16T05:17:16;9.20;99.90
35613;DHT22;22054;51.646;7.078;2023-04-16T05:19:42;9.20;99.90
35613;DHT22;22054;51.646;7.078;2023-04-16T05:22:08;9.30;99.90
35613;DHT22;22054;51.646;7.078;2023-04-16T05:24:33;9.40;99.90
35613;DHT22;22054;51.646;7.078;2023-04-16T05:26:59;9.30;99.90
35613;DHT22;22054;51.646;7.078;2023-04-16T05:29:25;9.30;99.90
35613;DHT22;22054;51.646;7.078;2023-04-16T05:31:51;9.30;99.90
35613;DHT22;22054;51.646;7.078;2023-04-16T05:34:17;9.40;99.90
35613;DHT22;22054;51.646;7.078;2023-04-16T05:36:43;9.30;99.90
35613;DHT22;22054;51.646;7.078;2023-04-16T05:39:08;9.20;99.90
35613;DHT22;22054;51.646;7.078;2023-04-16T05:41:35;9.40;99.90
35613;DHT22;22054;51.646;7.078;2023-04-16T05:44:00;9.50;99.90
35613;DHT22;22054;51.646;7.078;2023-04-16T05:46:26;9.40;99.90
35613;DHT22;22054;51.646;7.078;2023-04-16T05:48:52;9.60;99.90
35613;DHT22;22054;51.646;7.078;2023-04-16T05:51:17;9.60;99.90
35613;DHT22;22054;51.646;7.078;2023-04-16T05:53:44;9.60;99.90
35613;DHT22;22054;51.646;7.078;2023-04-16T05:56:10;9.70;99.90
35613;DHT22;22054;51.646;7.078;2023-04-16T05:58:35;9.70;99.90
35613;DHT22;22054;51.646;7.078;2023-04-16T06:01:01;9.60;99.90
35613;DHT22;22054;51.646;7.078;2023-04-16T06:03:27;9.60;99.90
35613;DHT22;22054;51.646;7.078;2023-04-16T06:05:53;9.70;99.90
35613;DHT22;22054;51.646;7.078;2023-04-16T06:08:19;9.70;99.90
35613;DHT22;22054;51.646;7.078;2023-04-16T06:10:46;9.80;99.90
35613;DHT22;22054;51.646;7.078;2023-04-16T06:13:11;9.80;99.90
35613;DHT22;22054;51.646;7.078;2023-04-16T06:15:37;9.70;99.90
35613;DHT22;22054;51.646;7.078;2023-04-16T06:18:03;9.70;99.90
35613;DHT22;22054;51.646;7.078;2023-04-16T06:20:29;9.80;99.90
35613;DHT22;22054;51.646;7.078;2023-04-16T06:22:55;9.80;99.90
35613;DHT22;22054;51.646;7.078;2023-04-16T06:25:21;9.90;99.90
35613;DHT22;22054;51.646;7.078;2023-04-16T06:27:47;9.90;99.90
35613;DHT22;22054;51.646;7.078;2023-04-16T06:30:14;9.90;99.90
35613;DHT22;22054;51.646;7.078;2023-04-16T06:32:41;9.90;99.90
35613;DHT22;22054;51.646;7.078;2023-04-16T06:35:08;9.90;99.90
35613;DHT22;22054;51.646;7.078;2023-04-16T06:37:33;9.90;99.90
35613;DHT22;22054;51.646;7.078;2023-04-16T06:39:59;10.00;99.90
35613;DHT22;22054;51.646;7.078;2023-04-16T06:42:26;10.00;99.90
35613;DHT22;22054;51.646;7.078;2023-04-16T06:44:52;10.10;99.90
35613;DHT22;22054;51.646;7.078;2023-04-16T06:47:18;10.20;99.90
35613;DHT22;22054;51.646;7.078;2023-04-16T06:49:43;10.20;99.90
35613;DHT22;22054;51.646;7.078;2023-04-16T06:52:10;10.20;99.90
35613;DHT22;22054;51.646;7.078;2023-04-16T06:54:36;10.30;99.90
35613;DHT22;22054;51.646;7.078;2023-04-16T06:57:01;10.30;99.90
35613;DHT22;22054;51.646;7.078;2023-04-16T06:59:27;10.40;99.90
35613;DHT22;22054;51.646;7.078;2023-04-16T07:01:53;10.40;99.90
35613;DHT22;22054;51.646;7.078;2023-04-16T07:04:18;10.30;99.90
35613;DHT22;22054;51.646;7.078;2023-04-16T07:06:44;10.40;99.90
35613;DHT22;22054;51.646;7.078;2023-04-16T07:09:10;10.40;99.90
35613;DHT22;22054;51.646;7.078;2023-04-16T07:11:36;10.40;99.90
35613;DHT22;22054;51.646;7.078;2023-04-16T07:14:02;10.60;99.90
35613;DHT22;22054;51.646;7.078;2023-04-16T07:16:27;10.60;99.90
35613;DHT22;22054;51.646;7.078;2023-04-16T07:18:53;10.70;99.90
35613;DHT22;22054;51.646;7.078;2023-04-16T07:21:19;10.80;99.90
35613;DHT22;22054;51.646;7.078;2023-04-16T07:23:45;10.90;99.90
35613;DHT22;22054;51.646;7.078;2023-04-16T07:26:11;11.00;99.90
35613;DHT22;22054;51.646;7.078;2023-04-16T07:28:36;11.10;99.90
35613;DHT22;22054;51.646;7.078;2023-04-16T07:31:02;11.20;99.90
35613;DHT22;22054;51.646;7.078;2023-04-16T07:33:28;11.50;99.90
35613;DHT22;22054;51.646;7.078;2023-04-16T07:35:54;11.30;99.90
35613;DHT22;22054;51.646;7.078;2023-04-16T07:38:19;11.20;99.90
35613;DHT22;22054;51.646;7.078;2023-04-16T07:40:45;11.30;99.90
35613;DHT22;22054;51.646;7.078;2023-04-16T07:43:13;11.30;99.90
35613;DHT22;22054;51.646;7.078;2023-04-16T07:45:39;11.20;99.90
35613;DHT22;22054;51.646;7.078;2023-04-16T07:48:05;11.30;99.90
35613;DHT22;22054;51.646;7.078;2023-04-16T07:50:31;11.30;99.90
35613;DHT22;22054;51.646;7.078;2023-04-16T07:52:57;11.10;99.90
35613;DHT22;22054;51.646;7.078;2023-04-16T07:55:22;11.20;99.90
35613;DHT22;22054;51.646;7.078;2023-04-16T07:57:48;11.40;99.90
35613;DHT22;22054;51.646;7.078;2023-04-16T08:00:14;11.60;99.90
35613;DHT22;22054;51.646;7.078;2023-04-16T08:02:40;11.80;99.90
35613;DHT22;22054;51.646;7.078;2023-04-16T08:05:07;12.00;99.90
35613;DHT22;22054;51.646;7.078;2023-04-16T08:07:33;12.10;99.90
35613;DHT22;22054;51.646;7.078;2023-04-16T08:09:59;12.10;99.90
35613;DHT22;22054;51.646;7.078;2023-04-16T08:12:25;12.10;99.90
35613;DHT22;22054;51.646;7.078;2023-04-16T08:14:50;12.00;99.90
35613;DHT22;22054;51.646;7.078;2023-04-16T08:17:16;11.90;99.90
35613;DHT22;22054;51.646;7.078;2023-04-16T08:19:43;12.10;99.90
35613;DHT22;22054;51.646;7.078;2023-04-16T08:22:12;12.20;99.90
35613;DHT22;22054;51.646;7.078;2023-04-16T08:24:38;12.40;99.90
35613;DHT22;22054;51.646;7.078;2023-04-16T08:27:04;12.60;99.90
35613;DHT22;22054;51.646;7.078;2023-04-16T08:29:30;12.90;99.90
35613;DHT22;22054;51.646;7.078;2023-04-16T08:31:56;13.20;99.90
35613;DHT22;22054;51.646;7.078;2023-04-16T08:34:21;13.20;99.90
35613;DHT22;22054;51.646;7.078;2023-04-16T08:36:47;13.30;99.90
35613;DHT22;22054;51.646;7.078;2023-04-16T08:39:13;13.20;99.90
35613;DHT22;22054;51.646;7.078;2023-04-16T08:41:42;12.90;99.90
35613;DHT22;22054;51.646;7.078;2023-04-16T08:44:10;12.70;99.90
35613;DHT22;22054;51.646;7.078;2023-04-16T08:46:40;12.70;99.90
35613;DHT22;22054;51.646;7.078;2023-04-16T08:49:07;12.70;99.90
35613;DHT22;22054;51.646;7.078;2023-04-16T08:51:33;12.90;99.90
35613;DHT22;22054;51.646;7.078;2023-04-16T08:54:07;13.00;99.90
35613;DHT22;22054;51.646;7.078;2023-04-16T08:56:35;13.00;99.90
35613;DHT22;22054;51.646;7.078;2023-04-16T08:59:02;13.10;99.90
35613;DHT22;22054;51.646;7.078;2023-04-16T09:01:32;13.30;99.90
35613;DHT22;22054;51.646;7.078;2023-04-16T09:03:58;13.50;99.90
35613;DHT22;22054;51.646;7.078;2023-04-16T09:06:27;13.60;99.90
35613;DHT22;22054;51.646;7.078;2023-04-16T09:08:53;13.90;99.90
35613;DHT22;22054;51.646;7.078;2023-04-16T09:11:19;14.00;99.90
35613;DHT22;22054;51.646;7.078;2023-04-16T09:13:46;14.20;99.90
35613;DHT22;22054;51.646;7.078;2023-04-16T09:16:13;14.10;99.90
35613;DHT22;22054;51.646;7.078;2023-04-16T09:18:39;13.80;99.90
35613;DHT22;22054;51.646;7.078;2023-04-16T09:21:08;13.80;99.90
35613;DHT22;22054;51.646;7.078;2023-04-16T09:23:36;13.80;99.90
35613;DHT22;22054;51.646;7.078;2023-04-16T09:26:03;13.70;99.90
35613;DHT22;22054;51.646;7.078;2023-04-16T09:28:43;13.60;99.90
35613;DHT22;22054;51.646;7.078;2023-04-16T09:31:15;13.70;99.90
35613;DHT22;22054;51.646;7.078;2023-04-16T09:33:43;13.70;99.90
35613;DHT22;22054;51.646;7.078;2023-04-16T09:36:22;13.70;99.90
35613;DHT22;22054;51.646;7.078;2023-04-16T09:38:49;14.10;99.90
35613;DHT22;22054;51.646;7.078;2023-04-16T09:41:16;14.40;99.90
35613;DHT22;22054;51.646;7.078;2023-04-16T09:43:59;14.60;99.90
35613;DHT22;22054;51.646;7.078;2023-04-16T09:46:39;14.50;99.90
35613;DHT22;22054;51.646;7.078;2023-04-16T09:49:16;14.50;99.90
35613;DHT22;22054;51.646;7.078;2023-04-16T09:51:45;14.60;99.90
35613;DHT22;22054;51.646;7.078;2023-04-16T09:54:12;14.70;99.90
35613;DHT22;22054;51.646;7.078;2023-04-16T09:56:42;14.90;99.90
35613;DHT22;22054;51.646;7.078;2023-04-16T09:59:19;15.10;99.90
35613;DHT22;22054;51.646;7.078;2023-04-16T10:01:46;15.30;99.90
35613;DHT22;22054;51.646;7.078;2023-04-16T10:04:14;15.30;99.90
35613;DHT22;22054;51.646;7.078;2023-04-16T10:06:40;15.20;99.90
35613;DHT22;22054;51.646;7.078;2023-04-16T10:09:07;15.10;99.90
35613;DHT22;22054;51.646;7.078;2023-04-16T10:11:34;14.90;99.90
35613;DHT22;22054;51.646;7.078;2023-04-16T10:14:02;14.80;99.90
35613;DHT22;22054;51.646;7.078;2023-04-16T10:16:29;14.80;99.90
35613;DHT22;22054;51.646;7.078;2023-04-16T10:18:55;14.90;99.90
35613;DHT22;22054;51.646;7.078;2023-04-16T10:21:21;14.90;99.90
35613;DHT22;22054;51.646;7.078;2023-04-16T10:23:47;15.00;99.90
35613;DHT22;22054;51.646;7.078;2023-04-16T10:26:14;15.00;99.90
35613;DHT22;22054;51.646;7.078;2023-04-16T10:28:40;15.00;99.90
35613;DHT22;22054;51.646;7.078;2023-04-16T10:31:07;15.40;99.90
35613;DHT22;22054;51.646;7.078;2023-04-16T10:33:36;15.90;99.90
35613;DHT22;22054;51.646;7.078;2023-04-16T10:38:39;16.40;99.90
35613;DHT22;22054;51.646;7.078;2023-04-16T10:41:06;16.00;99.90
35613;DHT22;22054;51.646;7.078;2023-04-16T10:43:42;15.80;99.90
35613;DHT22;22054;51.646;7.078;2023-04-16T10:49:23;16.00;99.90
35613;DHT22;22054;51.646;7.078;2023-04-16T10:51:57;16.30;99.90
35613;DHT22;22054;51.646;7.078;2023-04-16T10:54:26;16.70;99.90
35613;DHT22;22054;51.646;7.078;2023-04-16T10:56:55;17.00;99.90
35613;DHT22;22054;51.646;7.078;2023-04-16T10:59:23;17.20;99.90
35613;DHT22;22054;51.646;7.078;2023-04-16T11:01:52;17.60;99.90
35613;DHT22;22054;51.646;7.078;2023-04-16T11:09:56;18.00;99.90
35613;DHT22;22054;51.646;7.078;2023-04-16T11:12:39;18.30;99.90
35613;DHT22;22054;51.646;7.078;2023-04-16T11:15:08;18.40;99.90
35613;DHT22;22054;51.646;7.078;2023-04-16T11:20:18;18.00;99.90
35613;DHT22;22054;51.646;7.078;2023-04-16T11:22:52;17.60;99.90
35613;DHT22;22054;51.646;7.078;2023-04-16T11:25:29;17.30;99.90
35613;DHT22;22054;51.646;7.078;2023-04-16T11:27:56;17.20;99.90
35613;DHT22;22054;51.646;7.078;2023-04-16T11:30:33;17.70;99.90
35613;DHT22;22054;51.646;7.078;2023-04-16T11:33:07;17.80;99.90
35613;DHT22;22054;51.646;7.078;2023-04-16T11:35:34;18.10;99.90
35613;DHT22;22054;51.646;7.078;2023-04-16T11:38:00;18.00;99.90
35613;DHT22;22054;51.646;7.078;2023-04-16T11:40:29;17.60;99.90
35613;DHT22;22054;51.646;7.078;2023-04-16T11:43:02;17.30;99.90
35613;DHT22;22054;51.646;7.078;2023-04-16T11:45:29;17.40;99.90
35613;DHT22;22054;51.646;7.078;2023-04-16T11:47:55;17.60;99.90
35613;DHT22;22054;51.646;7.078;2023-04-16T11:50:26;17.60;99.90
35613;DHT22;22054;51.646;7.078;2023-04-16T11:52:55;17.50;99.90
35613;DHT22;22054;51.646;7.078;2023-04-16T11:55:22;17.40;99.90
35613;DHT22;22054;51.646;7.078;2023-04-16T11:57:49;17.30;99.90
35613;DHT22;22054;51.646;7.078;2023-04-16T12:00:15;17.10;99.90
35613;DHT22;22054;51.646;7.078;2023-04-16T12:02:48;16.80;99.90
35613;DHT22;22054;51.646;7.078;2023-04-16T12:08:03;15.90;99.90
35613;DHT22;22054;51.646;7.078;2023-04-16T12:10:33;15.50;99.90
35613;DHT22;22054;51.646;7.078;2023-04-16T12:13:19;15.50;99.90
35613;DHT22;22054;51.646;7.078;2023-04-16T12:15:55;15.10;99.90
35613;DHT22;22054;51.646;7.078;2023-04-16T12:18:25;15.30;99.90
35613;DHT22;22054;51.646;7.078;2023-04-16T12:20:51;15.40;99.90
35613;DHT22;22054;51.646;7.078;2023-04-16T12:23:28;15.50;99.90
35613;DHT22;22054;51.646;7.078;2023-04-16T12:25:55;15.30;99.90
35613;DHT22;22054;51.646;7.078;2023-04-16T12:28:34;15.30;99.90
35613;DHT22;22054;51.646;7.078;2023-04-16T12:31:01;15.50;99.90
35613;DHT22;22054;51.646;7.078;2023-04-16T12:33:27;15.80;99.90
35613;DHT22;22054;51.646;7.078;2023-04-16T12:35:54;16.00;99.90
35613;DHT22;22054;51.646;7.078;2023-04-16T12:38:19;16.00;99.90
35613;DHT22;22054;51.646;7.078;2023-04-16T12:40:46;16.00;99.90
35613;DHT22;22054;51.646;7.078;2023-04-16T12:43:12;16.00;99.90
35613;DHT22;22054;51.646;7.078;2023-04-16T12:45:38;15.70;99.90
35613;DHT22;22054;51.646;7.078;2023-04-16T12:48:05;15.50;99.90
35613;DHT22;22054;51.646;7.078;2023-04-16T12:50:31;15.80;99.90
35613;DHT22;22054;51.646;7.078;2023-04-16T12:52:58;15.90;99.90
35613;DHT22;22054;51.646;7.078;2023-04-16T12:55:24;16.30;99.90
35613;DHT22;22054;51.646;7.078;2023-04-16T12:57:50;16.20;99.90
35613;DHT22;22054;51.646;7.078;2023-04-16T13:00:17;15.80;99.90
35613;DHT22;22054;51.646;7.078;2023-04-16T13:02:44;16.20;99.90
35613;DHT22;22054;51.646;7.078;2023-04-16T13:05:10;16.00;99.90
35613;DHT22;22054;51.646;7.078;2023-04-16T13:07:37;15.70;99.90
35613;DHT22;22054;51.646;7.078;2023-04-16T13:10:04;16.10;99.90
35613;DHT22;22054;51.646;7.078;2023-04-16T13:12:30;16.40;99.90
35613;DHT22;22054;51.646;7.078;2023-04-16T13:14:57;16.50;99.90
35613;DHT22;22054;51.646;7.078;2023-04-16T13:17:22;16.90;99.90
35613;DHT22;22054;51.646;7.078;2023-04-16T13:19:49;17.30;99.90
35613;DHT22;22054;51.646;7.078;2023-04-16T13:22:16;17.30;99.90
35613;DHT22;22054;51.646;7.078;2023-04-16T13:24:41;17.40;99.90
35613;DHT22;22054;51.646;7.078;2023-04-16T13:27:08;18.60;99.90
35613;DHT22;22054;51.646;7.078;2023-04-16T13:29:33;20.00;99.90
35613;DHT22;22054;51.646;7.078;2023-04-16T13:32:02;20.80;99.90
35613;DHT22;22054;51.646;7.078;2023-04-16T13:34:28;20.10;99.90
35613;DHT22;22054;51.646;7.078;2023-04-16T13:36:54;19.40;99.90
35613;DHT22;22054;51.646;7.078;2023-04-16T13:39:20;18.00;99.90
35613;DHT22;22054;51.646;7.078;2023-04-16T13:41:46;17.00;99.90
35613;DHT22;22054;51.646;7.078;2023-04-16T13:44:13;16.80;99.90
35613;DHT22;22054;51.646;7.078;2023-04-16T13:46:39;16.90;99.90
35613;DHT22;22054;51.646;7.078;2023-04-16T13:49:05;16.60;99.90
35613;DHT22;22054;51.646;7.078;2023-04-16T13:51:31;16.50;99.90
35613;DHT22;22054;51.646;7.078;2023-04-16T13:53:58;16.50;99.90
35613;DHT22;22054;51.646;7.078;2023-04-16T13:56:24;16.50;99.90
35613;DHT22;22054;51.646;7.078;2023-04-16T13:58:49;16.40;99.90
35613;DHT22;22054;51.646;7.078;2023-04-16T14:01:16;16.40;99.90
35613;DHT22;22054;51.646;7.078;2023-04-16T14:03:42;16.40;99.90
35613;DHT22;22054;51.646;7.078;2023-04-16T14:06:07;16.20;99.90
35613;DHT22;22054;51.646;7.078;2023-04-16T14:08:33;16.10;99.90
35613;DHT22;22054;51.646;7.078;2023-04-16T14:10:59;16.20;99.90
35613;DHT22;22054;51.646;7.078;2023-04-16T14:13:26;16.30;99.90
35613;DHT22;22054;51.646;7.078;2023-04-16T14:15:55;16.40;99.90
35613;DHT22;22054;51.646;7.078;2023-04-16T14:18:21;16.80;99.90
35613;DHT22;22054;51.646;7.078;2023-04-16T14:20:47;16.50;99.90
35613;DHT22;22054;51.646;7.078;2023-04-16T14:23:12;16.70;99.90
35613;DHT22;22054;51.646;7.078;2023-04-16T14:25:38;17.00;99.90
35613;DHT22;22054;51.646;7.078;2023-04-16T14:28:04;16.80;99.90
35613;DHT22;22054;51.646;7.078;2023-04-16T14:30:30;16.60;99.90
35613;DHT22;22054;51.646;7.078;2023-04-16T14:32:56;16.40;99.90
35613;DHT22;22054;51.646;7.078;2023-04-16T14:35:22;16.40;99.90
35613;DHT22;22054;51.646;7.078;2023-04-16T14:37:48;16.50;99.90
35613;DHT22;22054;51.646;7.078;2023-04-16T14:40:14;16.50;99.90
35613;DHT22;22054;51.646;7.078;2023-04-16T14:42:40;16.70;99.90
35613;DHT22;22054;51.646;7.078;2023-04-16T14:45:07;17.70;99.90
35613;DHT22;22054;51.646;7.078;2023-04-16T14:47:34;18.20;99.90
35613;DHT22;22054;51.646;7.078;2023-04-16T14:50:01;18.30;99.90
35613;DHT22;22054;51.646;7.078;2023-04-16T14:52:30;19.00;99.90
35613;DHT22;22054;51.646;7.078;2023-04-16T14:54:56;20.50;99.90
35613;DHT22;22054;51.646;7.078;2023-04-16T14:57:22;21.00;99.90
35613;DHT22;22054;51.646;7.078;2023-04-16T14:59:48;21.50;99.90
35613;DHT22;22054;51.646;7.078;2023-04-16T15:02:14;21.20;99.90
35613;DHT22;22054;51.646;7.078;2023-04-16T15:04:40;21.40;99.90
35613;DHT22;22054;51.646;7.078;2023-04-16T15:07:06;20.80;99.90
35613;DHT22;22054;51.646;7.078;2023-04-16T15:09:33;20.60;99.90
35613;DHT22;22054;51.646;7.078;2023-04-16T15:11:59;20.20;99.90
35613;DHT22;22054;51.646;7.078;2023-04-16T15:14:25;20.10;99.90
35613;DHT22;22054;51.646;7.078;2023-04-16T15:16:51;20.20;99.90
35613;DHT22;22054;51.646;7.078;2023-04-16T15:19:18;19.80;99.90
35613;DHT22;22054;51.646;7.078;2023-04-16T15:21:44;19.50;99.90
35613;DHT22;22054;51.646;7.078;2023-04-16T15:24:10;19.40;99.90
35613;DHT22;22054;51.646;7.078;2023-04-16T15:26:36;19.30;99.90
35613;DHT22;22054;51.646;7.078;2023-04-16T15:29:03;19.10;99.90
35613;DHT22;22054;51.646;7.078;2023-04-16T15:31:28;18.80;99.90
35613;DHT22;22054;51.646;7.078;2023-04-16T15:33:54;18.80;99.90
35613;DHT22;22054;51.646;7.078;2023-04-16T15:36:20;18.80;99.90
35613;DHT22;22054;51.646;7.078;2023-04-16T15:38:46;18.70;99.90
35613;DHT22;22054;51.646;7.078;2023-04-16T15:41:12;18.80;99.90
35613;DHT22;22054;51.646;7.078;2023-04-16T15:43:38;18.80;99.90
35613;DHT22;22054;51.646;7.078;2023-04-16T15:46:04;19.10;99.90
35613;DHT22;22054;51.646;7.078;2023-04-16T15:48:30;18.90;99.90
35613;DHT22;22054;51.646;7.078;2023-04-16T15:50:56;19.50;99.90
35613;DHT22;22054;51.646;7.078;2023-04-16T15:53:22;19.50;99.90